sensor_id;sensor_type;location;lat;lon;timestamp;P1;durP1;ratioP1;P2;durP2;ratioP2
19278;SDS011;9773;47.062;15.446;2023-06-26T00:00:02;8.53;;;7.63;;
19278;SDS011;9773;47.062;15.446;2023-06-26T00:02:30;9.03;;;8.10;;
19278;SDS011;9773;47.062;15.446;2023-06-26T00:05:00;10.43;;;8.30;;
19278;SDS011;9773;47.062;15.446;2023-06-26T00:07:28;8.50;;;7.40;;
19278;SDS011;9773;47.062;15.446;2023-06-26T00:09:57;9.10;;;8.13;;
19278;SDS011;9773;47.062;15.446;2023-06-26T00:12:25;8.57;;;7.87;;
19278;SDS011;9773;47.062;15.446;2023-06-26T00:14:54;8.20;;;7.40;;
19278;SDS011;9773;47.062;15.446;2023-06-26T00:17:21;8.97;;;7.53;;
19278;SDS011;9773;47.062;15.446;2023-06-26T00:19:50;8.70;;;7.90;;
19278;SDS011;9773;47.062;15.446;2023-06-26T00:22:17;8.50;;;7.70;;
19278;SDS011;9773;47.062;15.446;2023-06-26T00:24:43;8.17;;;7.27;;
19278;SDS011;9773;47.062;15.446;2023-06-26T00:27:12;9.73;;;7.87;;
19278;SDS011;9773;47.062;15.446;2023-06-26T00:29:42;11.20;;;8.27;;
19278;SDS011;9773;47.062;15.446;2023-06-26T00:32:14;10.17;;;8.37;;
19278;SDS011;9773;47.062;15.446;2023-06-26T00:34:41;8.70;;;7.80;;
19278;SDS011;9773;47.062;15.446;2023-06-26T00:37:06;8.50;;;7.60;;
19278;SDS011;9773;47.062;15.446;2023-06-26T00:39:32;8.70;;;7.90;;
19278;SDS011;9773;47.062;15.446;2023-06-26T00:42:00;9.50;;;7.97;;
19278;SDS011;9773;47.062;15.446;2023-06-26T00:44:25;8.10;;;7.30;;
19278;SDS011;9773;47.062;15.446;2023-06-26T00:46:56;8.43;;;7.63;;
19278;SDS011;9773;47.062;15.446;2023-06-26T00:49:24;9.10;;;7.83;;
19278;SDS011;9773;47.062;15.446;2023-06-26T00:52:00;7.90;;;7.17;;
19278;SDS011;9773;47.062;15.446;2023-06-26T00:54:53;8.77;;;7.87;;
19278;SDS011;9773;47.062;15.446;2023-06-26T00:58:21;9.30;;;8.30;;
19278;SDS011;9773;47.062;15.446;2023-06-26T01:01:07;8.93;;;7.80;;
19278;SDS011;9773;47.062;15.446;2023-06-26T01:03:39;8.80;;;7.83;;
19278;SDS011;9773;47.062;15.446;2023-06-26T01:06:07;8.73;;;7.83;;
19278;SDS011;9773;47.062;15.446;2023-06-26T01:08:37;9.10;;;7.93;;
19278;SDS011;9773;47.062;15.446;2023-06-26T01:11:04;9.87;;;7.67;;
19278;SDS011;9773;47.062;15.446;2023-06-26T01:13:30;9.73;;;7.83;;
19278;SDS011;9773;47.062;15.446;2023-06-26T01:15:59;7.90;;;7.20;;
19278;SDS011;9773;47.062;15.446;2023-06-26T01:18:26;8.43;;;7.63;;
19278;SDS011;9773;47.062;15.446;2023-06-26T01:20:55;9.83;;;7.67;;
19278;SDS011;9773;47.062;15.446;2023-06-26T01:28:41;9.83;;;8.30;;
19278;SDS011;9773;47.062;15.446;2023-06-26T01:31:10;8.67;;;7.63;;
19278;SDS011;9773;47.062;15.446;2023-06-26T01:33:38;8.57;;;7.67;;
19278;SDS011;9773;47.062;15.446;2023-06-26T01:36:06;8.90;;;8.00;;
19278;SDS011;9773;47.062;15.446;2023-06-26T01:38:34;8.57;;;7.67;;
19278;SDS011;9773;47.062;15.446;2023-06-26T01:41:00;9.20;;;8.13;;
19278;SDS011;9773;47.062;15.446;2023-06-26T01:49:42;9.17;;;8.10;;
19278;SDS011;9773;47.062;15.446;2023-06-26T01:52:20;8.83;;;7.93;;
19278;SDS011;9773;47.062;15.446;2023-06-26T01:58:15;8.53;;;7.70;;
19278;SDS011;9773;47.062;15.446;2023-06-26T02:00:44;9.07;;;8.17;;
19278;SDS011;9773;47.062;15.446;2023-06-26T02:03:10;8.73;;;7.93;;
19278;SDS011;9773;47.062;15.446;2023-06-26T02:05:35;7.80;;;7.10;;
19278;SDS011;9773;47.062;15.446;2023-06-26T02:08:01;9.37;;;7.90;;
19278;SDS011;9773;47.062;15.446;2023-06-26T02:10:28;10.30;;;8.33;;
19278;SDS011;9773;47.062;15.446;2023-06-26T02:12:55;9.20;;;7.97;;
19278;SDS011;9773;47.062;15.446;2023-06-26T02:15:22;10.03;;;8.50;;
19278;SDS011;9773;47.062;15.446;2023-06-26T02:17:49;9.00;;;8.10;;
19278;SDS011;9773;47.062;15.446;2023-06-26T02:20:14;9.63;;;8.40;;
19278;SDS011;9773;47.062;15.446;2023-06-26T02:22:43;9.77;;;8.50;;
19278;SDS011;9773;47.062;15.446;2023-06-26T02:25:10;8.80;;;7.90;;
19278;SDS011;9773;47.062;15.446;2023-06-26T02:27:37;10.63;;;8.17;;
19278;SDS011;9773;47.062;15.446;2023-06-26T02:30:04;10.67;;;8.17;;
19278;SDS011;9773;47.062;15.446;2023-06-26T02:32:32;9.43;;;8.43;;
19278;SDS011;9773;47.062;15.446;2023-06-26T02:34:58;10.87;;;8.17;;
19278;SDS011;9773;47.062;15.446;2023-06-26T02:37:24;9.67;;;8.07;;
19278;SDS011;9773;47.062;15.446;2023-06-26T02:39:53;8.30;;;7.53;;
19278;SDS011;9773;47.062;15.446;2023-06-26T02:42:19;8.60;;;7.80;;
19278;SDS011;9773;47.062;15.446;2023-06-26T02:44:45;8.67;;;7.77;;
19278;SDS011;9773;47.062;15.446;2023-06-26T02:47:11;8.50;;;7.70;;
19278;SDS011;9773;47.062;15.446;2023-06-26T02:49:37;8.40;;;7.60;;
19278;SDS011;9773;47.062;15.446;2023-06-26T02:52:08;8.60;;;7.77;;
19278;SDS011;9773;47.062;15.446;2023-06-26T02:54:34;9.90;;;8.03;;
19278;SDS011;9773;47.062;15.446;2023-06-26T02:57:00;8.90;;;8.03;;
19278;SDS011;9773;47.062;15.446;2023-06-26T02:59:28;9.37;;;7.77;;
19278;SDS011;9773;47.062;15.446;2023-06-26T03:01:56;10.03;;;8.47;;
19278;SDS011;9773;47.062;15.446;2023-06-26T03:04:21;9.17;;;8.23;;
19278;SDS011;9773;47.062;15.446;2023-06-26T03:06:49;10.97;;;8.07;;
19278;SDS011;9773;47.062;15.446;2023-06-26T03:09:15;9.67;;;8.67;;
19278;SDS011;9773;47.062;15.446;2023-06-26T03:11:42;10.37;;;7.90;;
19278;SDS011;9773;47.062;15.446;2023-06-26T03:14:08;9.13;;;8.00;;
19278;SDS011;9773;47.062;15.446;2023-06-26T03:16:34;9.60;;;8.53;;
19278;SDS011;9773;47.062;15.446;2023-06-26T03:19:00;9.40;;;7.83;;
19278;SDS011;9773;47.062;15.446;2023-06-26T03:21:25;9.13;;;7.40;;
19278;SDS011;9773;47.062;15.446;2023-06-26T03:23:51;12.23;;;8.13;;
19278;SDS011;9773;47.062;15.446;2023-06-26T03:26:18;8.37;;;7.57;;
19278;SDS011;9773;47.062;15.446;2023-06-26T03:28:45;8.53;;;7.73;;
19278;SDS011;9773;47.062;15.446;2023-06-26T03:31:10;9.03;;;7.73;;
19278;SDS011;9773;47.062;15.446;2023-06-26T03:33:37;8.50;;;7.70;;
19278;SDS011;9773;47.062;15.446;2023-06-26T03:36:04;9.33;;;8.30;;
19278;SDS011;9773;47.062;15.446;2023-06-26T03:38:31;9.30;;;8.03;;
19278;SDS011;9773;47.062;15.446;2023-06-26T03:40:57;9.30;;;8.40;;
19278;SDS011;9773;47.062;15.446;2023-06-26T03:43:24;8.97;;;7.73;;
19278;SDS011;9773;47.062;15.446;2023-06-26T03:45:53;8.67;;;7.80;;
19278;SDS011;9773;47.062;15.446;2023-06-26T03:48:21;9.03;;;8.13;;
19278;SDS011;9773;47.062;15.446;2023-06-26T03:50:47;10.13;;;8.27;;
19278;SDS011;9773;47.062;15.446;2023-06-26T03:53:15;9.30;;;7.97;;
19278;SDS011;9773;47.062;15.446;2023-06-26T03:55:41;9.03;;;8.10;;
19278;SDS011;9773;47.062;15.446;2023-06-26T03:58:07;10.47;;;8.40;;
19278;SDS011;9773;47.062;15.446;2023-06-26T04:00:32;10.77;;;8.63;;
19278;SDS011;9773;47.062;15.446;2023-06-26T04:02:58;9.33;;;8.30;;
19278;SDS011;9773;47.062;15.446;2023-06-26T04:05:24;8.90;;;8.00;;
19278;SDS011;9773;47.062;15.446;2023-06-26T04:07:50;9.93;;;8.37;;
19278;SDS011;9773;47.062;15.446;2023-06-26T04:10:18;9.17;;;8.23;;
19278;SDS011;9773;47.062;15.446;2023-06-26T04:12:54;9.33;;;8.27;;
19278;SDS011;9773;47.062;15.446;2023-06-26T04:15:23;8.47;;;7.67;;
19278;SDS011;9773;47.062;15.446;2023-06-26T04:17:51;10.07;;;8.30;;
19278;SDS011;9773;47.062;15.446;2023-06-26T04:20:18;8.87;;;7.97;;
19278;SDS011;9773;47.062;15.446;2023-06-26T04:22:45;8.60;;;7.70;;
19278;SDS011;9773;47.062;15.446;2023-06-26T04:25:11;8.13;;;7.33;;
19278;SDS011;9773;47.062;15.446;2023-06-26T04:27:37;9.00;;;8.10;;
19278;SDS011;9773;47.062;15.446;2023-06-26T04:30:04;8.80;;;7.90;;
19278;SDS011;9773;47.062;15.446;2023-06-26T04:32:31;9.00;;;7.87;;
19278;SDS011;9773;47.062;15.446;2023-06-26T04:34:57;8.23;;;7.43;;
19278;SDS011;9773;47.062;15.446;2023-06-26T04:37:23;9.07;;;8.03;;
19278;SDS011;9773;47.062;15.446;2023-06-26T04:39:49;8.47;;;7.57;;
19278;SDS011;9773;47.062;15.446;2023-06-26T04:42:16;8.73;;;7.27;;
19278;SDS011;9773;47.062;15.446;2023-06-26T04:44:41;8.30;;;7.50;;
19278;SDS011;9773;47.062;15.446;2023-06-26T04:47:07;10.30;;;7.67;;
19278;SDS011;9773;47.062;15.446;2023-06-26T04:49:33;8.43;;;7.53;;
19278;SDS011;9773;47.062;15.446;2023-06-26T04:51:59;8.87;;;7.97;;
19278;SDS011;9773;47.062;15.446;2023-06-26T04:54:25;8.23;;;7.43;;
19278;SDS011;9773;47.062;15.446;2023-06-26T04:56:52;8.67;;;7.83;;
19278;SDS011;9773;47.062;15.446;2023-06-26T04:59:18;9.03;;;7.97;;
19278;SDS011;9773;47.062;15.446;2023-06-26T05:01:44;8.37;;;7.50;;
19278;SDS011;9773;47.062;15.446;2023-06-26T05:04:13;8.40;;;7.60;;
19278;SDS011;9773;47.062;15.446;2023-06-26T05:06:40;8.00;;;7.13;;
19278;SDS011;9773;47.062;15.446;2023-06-26T05:09:05;8.50;;;7.70;;
19278;SDS011;9773;47.062;15.446;2023-06-26T05:11:31;9.63;;;7.90;;
19278;SDS011;9773;47.062;15.446;2023-06-26T05:13:57;9.30;;;8.40;;
19278;SDS011;9773;47.062;15.446;2023-06-26T05:16:23;8.97;;;8.07;;
19278;SDS011;9773;47.062;15.446;2023-06-26T05:18:48;10.00;;;8.00;;
19278;SDS011;9773;47.062;15.446;2023-06-26T05:21:14;8.17;;;7.37;;
19278;SDS011;9773;47.062;15.446;2023-06-26T05:23:41;7.97;;;7.27;;
19278;SDS011;9773;47.062;15.446;2023-06-26T05:26:09;9.77;;;7.57;;
19278;SDS011;9773;47.062;15.446;2023-06-26T05:28:36;9.00;;;8.10;;
19278;SDS011;9773;47.062;15.446;2023-06-26T05:31:03;8.73;;;7.83;;
19278;SDS011;9773;47.062;15.446;2023-06-26T05:33:30;9.13;;;8.17;;
19278;SDS011;9773;47.062;15.446;2023-06-26T05:35:59;8.23;;;7.43;;
19278;SDS011;9773;47.062;15.446;2023-06-26T05:38:27;7.93;;;7.13;;
19278;SDS011;9773;47.062;15.446;2023-06-26T05:40:53;8.17;;;7.37;;
19278;SDS011;9773;47.062;15.446;2023-06-26T05:43:19;8.63;;;7.80;;
19278;SDS011;9773;47.062;15.446;2023-06-26T05:45:46;10.40;;;8.00;;
19278;SDS011;9773;47.062;15.446;2023-06-26T05:48:13;8.03;;;7.23;;
19278;SDS011;9773;47.062;15.446;2023-06-26T05:50:39;8.90;;;8.00;;
19278;SDS011;9773;47.062;15.446;2023-06-26T05:53:07;8.70;;;7.80;;
19278;SDS011;9773;47.062;15.446;2023-06-26T05:55:33;8.73;;;7.87;;
19278;SDS011;9773;47.062;15.446;2023-06-26T05:57:59;9.27;;;8.00;;
19278;SDS011;9773;47.062;15.446;2023-06-26T06:00:26;8.87;;;7.70;;
19278;SDS011;9773;47.062;15.446;2023-06-26T06:02:53;10.07;;;7.17;;
19278;SDS011;9773;47.062;15.446;2023-06-26T06:05:19;8.70;;;7.77;;
19278;SDS011;9773;47.062;15.446;2023-06-26T06:07:49;10.53;;;7.70;;
19278;SDS011;9773;47.062;15.446;2023-06-26T06:10:15;8.53;;;7.37;;
19278;SDS011;9773;47.062;15.446;2023-06-26T06:12:42;8.13;;;7.33;;
19278;SDS011;9773;47.062;15.446;2023-06-26T06:15:08;7.87;;;7.07;;
19278;SDS011;9773;47.062;15.446;2023-06-26T06:17:34;8.37;;;7.57;;
19278;SDS011;9773;47.062;15.446;2023-06-26T06:20:00;8.17;;;7.43;;
19278;SDS011;9773;47.062;15.446;2023-06-26T06:22:25;8.27;;;7.40;;
19278;SDS011;9773;47.062;15.446;2023-06-26T06:24:51;8.87;;;7.47;;
19278;SDS011;9773;47.062;15.446;2023-06-26T06:27:17;7.93;;;6.97;;
19278;SDS011;9773;47.062;15.446;2023-06-26T06:29:43;8.27;;;7.47;;
19278;SDS011;9773;47.062;15.446;2023-06-26T06:32:09;9.57;;;8.23;;
19278;SDS011;9773;47.062;15.446;2023-06-26T06:34:34;8.13;;;7.43;;
19278;SDS011;9773;47.062;15.446;2023-06-26T06:37:01;7.53;;;6.80;;
19278;SDS011;9773;47.062;15.446;2023-06-26T06:39:28;8.03;;;7.20;;
19278;SDS011;9773;47.062;15.446;2023-06-26T06:41:53;10.00;;;7.57;;
19278;SDS011;9773;47.062;15.446;2023-06-26T06:44:19;7.73;;;7.03;;
19278;SDS011;9773;47.062;15.446;2023-06-26T06:46:45;8.30;;;7.23;;
19278;SDS011;9773;47.062;15.446;2023-06-26T06:49:11;7.10;;;6.40;;
19278;SDS011;9773;47.062;15.446;2023-06-26T06:51:36;8.27;;;7.10;;
19278;SDS011;9773;47.062;15.446;2023-06-26T06:54:02;8.80;;;7.30;;
19278;SDS011;9773;47.062;15.446;2023-06-26T06:56:28;8.23;;;7.20;;
19278;SDS011;9773;47.062;15.446;2023-06-26T06:58:54;7.28;;;6.57;;
19278;SDS011;9773;47.062;15.446;2023-06-26T07:01:19;7.68;;;6.97;;
19278;SDS011;9773;47.062;15.446;2023-06-26T07:03:45;8.65;;;7.00;;
19278;SDS011;9773;47.062;15.446;2023-06-26T07:06:11;7.45;;;6.80;;
19278;SDS011;9773;47.062;15.446;2023-06-26T07:08:36;7.75;;;7.05;;
19278;SDS011;9773;47.062;15.446;2023-06-26T07:11:03;7.47;;;6.77;;
19278;SDS011;9773;47.062;15.446;2023-06-26T07:13:29;7.78;;;6.50;;
19278;SDS011;9773;47.062;15.446;2023-06-26T07:15:54;7.82;;;6.95;;
19278;SDS011;9773;47.062;15.446;2023-06-26T07:18:20;8.20;;;7.22;;
19278;SDS011;9773;47.062;15.446;2023-06-26T07:20:46;7.80;;;7.10;;
19278;SDS011;9773;47.062;15.446;2023-06-26T07:23:11;8.15;;;7.35;;
19278;SDS011;9773;47.062;15.446;2023-06-26T07:25:37;8.35;;;7.53;;
19278;SDS011;9773;47.062;15.446;2023-06-26T07:28:03;7.15;;;6.45;;
19278;SDS011;9773;47.062;15.446;2023-06-26T07:30:34;7.30;;;6.70;;
19278;SDS011;9773;47.062;15.446;2023-06-26T07:33:00;7.47;;;6.80;;
19278;SDS011;9773;47.062;15.446;2023-06-26T07:35:25;7.22;;;6.53;;
19278;SDS011;9773;47.062;15.446;2023-06-26T07:37:52;6.78;;;6.18;;
19278;SDS011;9773;47.062;15.446;2023-06-26T07:40:18;7.15;;;6.45;;
19278;SDS011;9773;47.062;15.446;2023-06-26T07:42:44;7.90;;;6.68;;
19278;SDS011;9773;47.062;15.446;2023-06-26T07:45:11;6.53;;;6.03;;
19278;SDS011;9773;47.062;15.446;2023-06-26T07:47:40;6.68;;;6.07;;
19278;SDS011;9773;47.062;15.446;2023-06-26T07:50:06;7.38;;;6.68;;
19278;SDS011;9773;47.062;15.446;2023-06-26T07:52:32;6.15;;;5.55;;
19278;SDS011;9773;47.062;15.446;2023-06-26T07:54:59;6.32;;;5.72;;
19278;SDS011;9773;47.062;15.446;2023-06-26T07:57:26;7.70;;;6.20;;
19278;SDS011;9773;47.062;15.446;2023-06-26T07:59:52;9.43;;;6.10;;
19278;SDS011;9773;47.062;15.446;2023-06-26T08:02:18;7.18;;;6.47;;
19278;SDS011;9773;47.062;15.446;2023-06-26T08:04:44;6.65;;;6.15;;
19278;SDS011;9773;47.062;15.446;2023-06-26T08:07:09;6.50;;;5.90;;
19278;SDS011;9773;47.062;15.446;2023-06-26T08:09:35;6.38;;;5.88;;
19278;SDS011;9773;47.062;15.446;2023-06-26T08:12:01;6.03;;;5.47;;
19278;SDS011;9773;47.062;15.446;2023-06-26T08:14:27;6.35;;;5.78;;
19278;SDS011;9773;47.062;15.446;2023-06-26T08:16:53;6.00;;;5.50;;
19278;SDS011;9773;47.062;15.446;2023-06-26T08:19:19;6.45;;;5.85;;
19278;SDS011;9773;47.062;15.446;2023-06-26T08:21:46;5.93;;;5.43;;
19278;SDS011;9773;47.062;15.446;2023-06-26T08:24:12;6.40;;;5.90;;
19278;SDS011;9773;47.062;15.446;2023-06-26T08:26:38;6.25;;;5.75;;
19278;SDS011;9773;47.062;15.446;2023-06-26T08:29:06;7.13;;;6.43;;
19278;SDS011;9773;47.062;15.446;2023-06-26T08:31:35;6.35;;;5.85;;
19278;SDS011;9773;47.062;15.446;2023-06-26T08:34:04;6.00;;;5.57;;
19278;SDS011;9773;47.062;15.446;2023-06-26T08:36:30;7.68;;;6.45;;
19278;SDS011;9773;47.062;15.446;2023-06-26T08:38:56;5.97;;;5.47;;
19278;SDS011;9773;47.062;15.446;2023-06-26T08:41:22;7.88;;;6.20;;
19278;SDS011;9773;47.062;15.446;2023-06-26T08:43:48;6.90;;;6.32;;
19278;SDS011;9773;47.062;15.446;2023-06-26T08:46:18;6.57;;;5.97;;
19278;SDS011;9773;47.062;15.446;2023-06-26T08:48:45;6.03;;;5.43;;
19278;SDS011;9773;47.062;15.446;2023-06-26T08:51:15;6.05;;;5.35;;
19278;SDS011;9773;47.062;15.446;2023-06-26T08:53:48;7.00;;;6.30;;
19278;SDS011;9773;47.062;15.446;2023-06-26T08:56:24;8.05;;;6.38;;
19278;SDS011;9773;47.062;15.446;2023-06-26T08:58:52;7.28;;;5.97;;
19278;SDS011;9773;47.062;15.446;2023-06-26T09:01:20;6.60;;;6.00;;
19278;SDS011;9773;47.062;15.446;2023-06-26T09:03:46;7.00;;;6.40;;
19278;SDS011;9773;47.062;15.446;2023-06-26T09:06:12;7.15;;;6.45;;
19278;SDS011;9773;47.062;15.446;2023-06-26T09:08:38;6.22;;;5.80;;
19278;SDS011;9773;47.062;15.446;2023-06-26T09:11:03;6.65;;;5.97;;
19278;SDS011;9773;47.062;15.446;2023-06-26T09:13:30;6.25;;;5.75;;
19278;SDS011;9773;47.062;15.446;2023-06-26T09:15:55;6.75;;;6.18;;
19278;SDS011;9773;47.062;15.446;2023-06-26T09:18:22;7.95;;;6.05;;
19278;SDS011;9773;47.062;15.446;2023-06-26T09:20:48;6.80;;;6.20;;
19278;SDS011;9773;47.062;15.446;2023-06-26T09:23:14;6.22;;;5.72;;
19278;SDS011;9773;47.062;15.446;2023-06-26T09:25:40;6.35;;;5.85;;
19278;SDS011;9773;47.062;15.446;2023-06-26T09:28:08;6.53;;;6.03;;
19278;SDS011;9773;47.062;15.446;2023-06-26T09:30:34;7.53;;;6.88;;
19278;SDS011;9773;47.062;15.446;2023-06-26T09:33:17;6.68;;;6.18;;
19278;SDS011;9773;47.062;15.446;2023-06-26T09:35:44;6.85;;;6.15;;
19278;SDS011;9773;47.062;15.446;2023-06-26T09:38:13;7.15;;;6.45;;
19278;SDS011;9773;47.062;15.446;2023-06-26T09:40:40;6.82;;;6.32;;
19278;SDS011;9773;47.062;15.446;2023-06-26T09:43:06;6.28;;;5.78;;
19278;SDS011;9773;47.062;15.446;2023-06-26T09:45:35;5.35;;;4.95;;
19278;SDS011;9773;47.062;15.446;2023-06-26T09:48:02;5.35;;;4.85;;
19278;SDS011;9773;47.062;15.446;2023-06-26T09:50:28;4.75;;;4.45;;
19278;SDS011;9773;47.062;15.446;2023-06-26T09:52:55;5.88;;;5.38;;
19278;SDS011;9773;47.062;15.446;2023-06-26T09:55:21;5.53;;;4.97;;
19278;SDS011;9773;47.062;15.446;2023-06-26T09:57:49;5.43;;;4.93;;
19278;SDS011;9773;47.062;15.446;2023-06-26T10:00:15;5.45;;;4.45;;
19278;SDS011;9773;47.062;15.446;2023-06-26T10:02:41;5.28;;;4.70;;
19278;SDS011;9773;47.062;15.446;2023-06-26T10:05:07;6.13;;;5.63;;
19278;SDS011;9773;47.062;15.446;2023-06-26T10:07:33;6.43;;;5.82;;
19278;SDS011;9773;47.062;15.446;2023-06-26T10:10:02;6.97;;;6.28;;
19278;SDS011;9773;47.062;15.446;2023-06-26T10:12:30;7.35;;;6.65;;
19278;SDS011;9773;47.062;15.446;2023-06-26T10:14:56;6.63;;;6.10;;
19278;SDS011;9773;47.062;15.446;2023-06-26T10:17:24;6.15;;;5.65;;
19278;SDS011;9773;47.062;15.446;2023-06-26T10:19:53;6.43;;;5.82;;
19278;SDS011;9773;47.062;15.446;2023-06-26T10:22:24;5.93;;;5.47;;
19278;SDS011;9773;47.062;15.446;2023-06-26T10:24:54;6.15;;;5.65;;
19278;SDS011;9773;47.062;15.446;2023-06-26T10:27:23;6.55;;;5.97;;
19278;SDS011;9773;47.062;15.446;2023-06-26T10:29:56;5.93;;;5.53;;
19278;SDS011;9773;47.062;15.446;2023-06-26T10:32:27;5.97;;;5.38;;
19278;SDS011;9773;47.062;15.446;2023-06-26T10:34:54;7.00;;;6.43;;
19278;SDS011;9773;47.062;15.446;2023-06-26T10:37:21;6.60;;;6.00;;
19278;SDS011;9773;47.062;15.446;2023-06-26T10:40:05;6.47;;;5.90;;
19278;SDS011;9773;47.062;15.446;2023-06-26T10:42:35;6.20;;;5.63;;
19278;SDS011;9773;47.062;15.446;2023-06-26T10:45:09;5.72;;;5.28;;
19278;SDS011;9773;47.062;15.446;2023-06-26T10:47:36;5.72;;;5.22;;
19278;SDS011;9773;47.062;15.446;2023-06-26T10:50:24;5.50;;;5.10;;
19278;SDS011;9773;47.062;15.446;2023-06-26T10:55:49;5.70;;;5.20;;
19278;SDS011;9773;47.062;15.446;2023-06-26T11:04:00;5.80;;;5.40;;
19278;SDS011;9773;47.062;15.446;2023-06-26T11:06:40;5.47;;;5.07;;
19278;SDS011;9773;47.062;15.446;2023-06-26T11:09:07;6.35;;;5.85;;
19278;SDS011;9773;47.062;15.446;2023-06-26T11:14:26;6.05;;;5.50;;
19278;SDS011;9773;47.062;15.446;2023-06-26T11:16:53;5.80;;;5.40;;
19278;SDS011;9773;47.062;15.446;2023-06-26T11:19:21;5.38;;;4.97;;
19278;SDS011;9773;47.062;15.446;2023-06-26T11:21:47;5.60;;;5.20;;
19278;SDS011;9773;47.062;15.446;2023-06-26T11:24:13;5.45;;;5.05;;
19278;SDS011;9773;47.062;15.446;2023-06-26T11:26:39;6.05;;;5.40;;
19278;SDS011;9773;47.062;15.446;2023-06-26T11:29:06;5.65;;;5.15;;
19278;SDS011;9773;47.062;15.446;2023-06-26T11:31:33;7.20;;;5.53;;
19278;SDS011;9773;47.062;15.446;2023-06-26T11:34:01;6.18;;;5.68;;
19278;SDS011;9773;47.062;15.446;2023-06-26T11:36:29;5.93;;;5.43;;
19278;SDS011;9773;47.062;15.446;2023-06-26T11:38:56;5.72;;;5.32;;
19278;SDS011;9773;47.062;15.446;2023-06-26T11:41:26;5.18;;;4.82;;
19278;SDS011;9773;47.062;15.446;2023-06-26T11:43:54;7.53;;;6.93;;
19278;SDS011;9773;47.062;15.446;2023-06-26T11:46:20;7.40;;;6.80;;
19278;SDS011;9773;47.062;15.446;2023-06-26T11:48:47;6.30;;;5.68;;
19278;SDS011;9773;47.062;15.446;2023-06-26T11:51:14;6.15;;;5.55;;
19278;SDS011;9773;47.062;15.446;2023-06-26T11:53:43;6.65;;;6.05;;
19278;SDS011;9773;47.062;15.446;2023-06-26T11:56:11;6.20;;;5.70;;
19278;SDS011;9773;47.062;15.446;2023-06-26T12:01:42;5.55;;;5.15;;
19278;SDS011;9773;47.062;15.446;2023-06-26T12:04:12;5.50;;;5.10;;
19278;SDS011;9773;47.062;15.446;2023-06-26T12:06:40;5.70;;;5.30;;
19278;SDS011;9773;47.062;15.446;2023-06-26T12:09:10;5.00;;;4.60;;
19278;SDS011;9773;47.062;15.446;2023-06-26T12:11:38;5.28;;;4.95;;
19278;SDS011;9773;47.062;15.446;2023-06-26T12:14:08;5.40;;;5.00;;
19278;SDS011;9773;47.062;15.446;2023-06-26T12:16:35;5.03;;;4.63;;
19278;SDS011;9773;47.062;15.446;2023-06-26T12:19:02;5.55;;;5.15;;
19278;SDS011;9773;47.062;15.446;2023-06-26T12:24:08;5.30;;;5.00;;
19278;SDS011;9773;47.062;15.446;2023-06-26T12:26:35;5.40;;;5.00;;
19278;SDS011;9773;47.062;15.446;2023-06-26T12:29:05;5.60;;;5.10;;
19278;SDS011;9773;47.062;15.446;2023-06-26T12:31:32;5.80;;;5.20;;
19278;SDS011;9773;47.062;15.446;2023-06-26T12:33:58;5.70;;;5.30;;
19278;SDS011;9773;47.062;15.446;2023-06-26T12:36:25;5.40;;;5.00;;
19278;SDS011;9773;47.062;15.446;2023-06-26T12:38:52;5.05;;;4.65;;
19278;SDS011;9773;47.062;15.446;2023-06-26T12:41:18;5.03;;;4.72;;
19278;SDS011;9773;47.062;15.446;2023-06-26T12:43:45;5.20;;;4.80;;
19278;SDS011;9773;47.062;15.446;2023-06-26T12:46:11;5.72;;;5.22;;
19278;SDS011;9773;47.062;15.446;2023-06-26T12:48:41;4.72;;;4.43;;
19278;SDS011;9773;47.062;15.446;2023-06-26T12:51:16;5.13;;;4.65;;
19278;SDS011;9773;47.062;15.446;2023-06-26T12:53:44;5.43;;;4.97;;
19278;SDS011;9773;47.062;15.446;2023-06-26T12:56:10;5.07;;;4.78;;
19278;SDS011;9773;47.062;15.446;2023-06-26T12:58:37;5.60;;;5.20;;
19278;SDS011;9773;47.062;15.446;2023-06-26T13:01:03;5.28;;;4.88;;
19278;SDS011;9773;47.062;15.446;2023-06-26T13:03:32;5.07;;;4.68;;
19278;SDS011;9773;47.062;15.446;2023-06-26T13:05:58;5.07;;;4.65;;
19278;SDS011;9773;47.062;15.446;2023-06-26T13:08:24;6.82;;;5.15;;
19278;SDS011;9773;47.062;15.446;2023-06-26T13:10:49;5.25;;;4.80;;
19278;SDS011;9773;47.062;15.446;2023-06-26T13:13:16;4.97;;;4.57;;
19278;SDS011;9773;47.062;15.446;2023-06-26T13:15:41;5.70;;;5.28;;
19278;SDS011;9773;47.062;15.446;2023-06-26T13:18:07;5.30;;;4.80;;
19278;SDS011;9773;47.062;15.446;2023-06-26T13:20:33;4.90;;;4.50;;
19278;SDS011;9773;47.062;15.446;2023-06-26T13:22:59;5.10;;;4.65;;
19278;SDS011;9773;47.062;15.446;2023-06-26T13:25:24;5.07;;;4.65;;
19278;SDS011;9773;47.062;15.446;2023-06-26T13:27:50;4.80;;;4.50;;
19278;SDS011;9773;47.062;15.446;2023-06-26T13:30:16;5.38;;;4.97;;
19278;SDS011;9773;47.062;15.446;2023-06-26T13:32:42;5.00;;;4.63;;
19278;SDS011;9773;47.062;15.446;2023-06-26T13:35:08;5.28;;;4.88;;
19278;SDS011;9773;47.062;15.446;2023-06-26T13:37:38;5.25;;;4.90;;
19278;SDS011;9773;47.062;15.446;2023-06-26T13:40:05;4.40;;;4.10;;
19278;SDS011;9773;47.062;15.446;2023-06-26T13:42:32;4.68;;;4.38;;
19278;SDS011;9773;47.062;15.446;2023-06-26T13:44:58;5.45;;;5.05;;
19278;SDS011;9773;47.062;15.446;2023-06-26T13:47:24;5.13;;;4.72;;
19278;SDS011;9773;47.062;15.446;2023-06-26T13:49:50;5.22;;;4.82;;
19278;SDS011;9773;47.062;15.446;2023-06-26T13:52:16;4.80;;;4.50;;
19278;SDS011;9773;47.062;15.446;2023-06-26T13:54:41;5.45;;;5.05;;
19278;SDS011;9773;47.062;15.446;2023-06-26T13:57:08;4.63;;;4.32;;
19278;SDS011;9773;47.062;15.446;2023-06-26T13:59:36;5.30;;;4.90;;
19278;SDS011;9773;47.062;15.446;2023-06-26T14:02:04;5.10;;;4.70;;
19278;SDS011;9773;47.062;15.446;2023-06-26T14:04:31;4.80;;;4.50;;
19278;SDS011;9773;47.062;15.446;2023-06-26T14:06:57;5.30;;;4.90;;
19278;SDS011;9773;47.062;15.446;2023-06-26T14:09:23;6.07;;;5.47;;
19278;SDS011;9773;47.062;15.446;2023-06-26T14:11:49;6.00;;;5.50;;
19278;SDS011;9773;47.062;15.446;2023-06-26T14:14:15;5.43;;;4.97;;
19278;SDS011;9773;47.062;15.446;2023-06-26T14:16:41;4.88;;;4.47;;
19278;SDS011;9773;47.062;15.446;2023-06-26T14:19:07;5.95;;;5.00;;
19278;SDS011;9773;47.062;15.446;2023-06-26T14:21:38;5.38;;;4.97;;
19278;SDS011;9773;47.062;15.446;2023-06-26T14:24:03;5.40;;;4.90;;
19278;SDS011;9773;47.062;15.446;2023-06-26T14:26:29;5.45;;;5.05;;
19278;SDS011;9773;47.062;15.446;2023-06-26T14:28:57;5.05;;;4.75;;
19278;SDS011;9773;47.062;15.446;2023-06-26T14:31:23;5.45;;;5.05;;
19278;SDS011;9773;47.062;15.446;2023-06-26T14:33:49;4.55;;;4.25;;
19278;SDS011;9773;47.062;15.446;2023-06-26T14:36:15;5.65;;;5.20;;
19278;SDS011;9773;47.062;15.446;2023-06-26T14:38:41;5.50;;;5.10;;
19278;SDS011;9773;47.062;15.446;2023-06-26T14:41:07;6.07;;;5.47;;
19278;SDS011;9773;47.062;15.446;2023-06-26T14:43:32;5.47;;;5.07;;
19278;SDS011;9773;47.062;15.446;2023-06-26T14:45:58;5.35;;;4.82;;
19278;SDS011;9773;47.062;15.446;2023-06-26T14:48:24;7.25;;;6.65;;
19278;SDS011;9773;47.062;15.446;2023-06-26T14:50:50;5.50;;;5.10;;
19278;SDS011;9773;47.062;15.446;2023-06-26T14:53:15;6.25;;;5.75;;
19278;SDS011;9773;47.062;15.446;2023-06-26T14:55:42;5.13;;;4.82;;
19278;SDS011;9773;47.062;15.446;2023-06-26T14:58:07;5.28;;;4.80;;
19278;SDS011;9773;47.062;15.446;2023-06-26T15:00:33;5.57;;;5.18;;
19278;SDS011;9773;47.062;15.446;2023-06-26T15:02:59;6.65;;;4.85;;
19278;SDS011;9773;47.062;15.446;2023-06-26T15:05:25;4.90;;;4.50;;
19278;SDS011;9773;47.062;15.446;2023-06-26T15:07:51;4.72;;;4.43;;
19278;SDS011;9773;47.062;15.446;2023-06-26T15:10:17;5.10;;;4.80;;
19278;SDS011;9773;47.062;15.446;2023-06-26T15:12:43;5.60;;;5.10;;
19278;SDS011;9773;47.062;15.446;2023-06-26T15:15:09;5.25;;;4.75;;
19278;SDS011;9773;47.062;15.446;2023-06-26T15:17:35;4.93;;;4.63;;
19278;SDS011;9773;47.062;15.446;2023-06-26T15:20:01;5.07;;;4.65;;